createdAt,value
2019-01-23T00:03:38.094Z,37.30
2019-01-23T00:09:39.067Z,37.40
2019-01-23T00:13:43.611Z,39.77
2019-01-23T01:20:11.111Z,40.80
2019-01-23T02:00:24.875Z,37.47
2019-01-23T02:17:05.943Z,30.80
2019-01-23T02:21:10.481Z,42.33
2019-01-23T02:28:38.982Z,41.73
2019-01-23T02:35:24.219Z,36.30
2019-01-23T02:39:28.789Z,36.60
2019-01-23T02:43:35.059Z,32.47
2019-01-23T02:51:35.248Z,37.30
2019-01-23T02:55:39.779Z,37.63
2019-01-23T02:59:44.286Z,40.97
2019-01-23T03:03:48.802Z,38.33
2019-01-23T03:07:53.351Z,35.93
2019-01-23T03:11:57.882Z,35.20
2019-01-23T03:16:02.374Z,45.73
2019-01-23T03:20:08.415Z,39.53
2019-01-23T03:28:16.234Z,40.63
2019-01-23T03:32:20.736Z,35.33
2019-01-23T03:38:02.023Z,33.23
2019-01-23T03:42:06.886Z,38.53
2019-01-23T03:46:11.427Z,33.27
2019-01-23T03:54:23.357Z,39.67
2019-01-23T03:58:27.855Z,38.07
2019-01-23T04:02:32.500Z,41.70
2019-01-23T04:06:37.031Z,37.97
2019-01-23T04:10:41.567Z,33.60
2019-01-23T04:15:22.891Z,38.03
2019-01-23T04:19:27.444Z,38.73
2019-01-23T04:25:16.644Z,48.93
2019-01-23T04:29:21.136Z,40.57
2019-01-23T04:33:25.678Z,44.40
2019-01-23T04:37:30.206Z,37.60
2019-01-23T04:41:34.782Z,37.43
2019-01-23T04:45:39.309Z,32.87
2019-01-23T04:49:43.809Z,45.37
2019-01-23T04:53:49.553Z,41.10
2019-01-23T04:57:54.079Z,44.53
2019-01-23T05:02:34.571Z,40.10
2019-01-23T05:06:39.107Z,39.53
2019-01-23T05:10:43.640Z,38.87
2019-01-23T05:14:48.120Z,41.00
2019-01-23T05:18:52.651Z,42.33
2019-01-23T05:22:57.178Z,34.93
2019-01-23T05:29:38.266Z,44.43
2019-01-23T05:33:42.810Z,46.00
2019-01-23T05:39:38.214Z,42.37
2019-01-23T05:43:42.814Z,38.83
2019-01-23T05:47:47.349Z,40.77
2019-01-23T05:51:51.879Z,45.13
2019-01-23T05:55:56.410Z,41.07
2019-01-23T06:00:02.621Z,41.10
2019-01-23T06:04:07.095Z,47.53
2019-01-23T06:11:07.522Z,43.37
2019-01-23T06:15:12.443Z,43.10
2019-01-23T06:19:16.940Z,50.17
2019-01-23T06:23:21.575Z,50.10
2019-01-23T06:27:26.107Z,45.10
2019-01-23T06:31:30.651Z,41.13
2019-01-23T06:35:35.159Z,56.50
2019-01-23T06:43:42.400Z,43.73
2019-01-23T06:47:47.612Z,45.40
2019-01-23T06:51:52.110Z,49.07
2019-01-23T06:55:56.654Z,48.83
2019-01-23T07:00:01.191Z,45.43
2019-01-23T07:04:05.934Z,51.73
2019-01-23T07:11:59.247Z,42.07
2019-01-23T07:16:03.783Z,44.13
2019-01-23T07:20:11.475Z,50.97
2019-01-23T07:24:15.976Z,48.20
2019-01-23T07:28:20.507Z,48.33
2019-01-23T07:34:29.296Z,46.63
2019-01-23T07:38:33.864Z,50.73
2019-01-23T07:42:38.415Z,47.10
2019-01-23T07:46:42.938Z,43.17
2019-01-23T07:50:47.450Z,48.43
2019-01-23T07:54:51.979Z,52.73
2019-01-23T07:58:56.515Z,53.87
2019-01-23T08:03:01.076Z,49.53
2019-01-23T08:07:05.586Z,45.17
2019-01-23T08:11:10.117Z,49.03
2019-01-23T08:15:17.679Z,48.57
2019-01-23T08:19:22.237Z,50.27
2019-01-23T08:27:33.843Z,49.17
2019-01-23T08:31:38.375Z,46.80
2019-01-23T08:40:22.905Z,49.07
2019-01-23T08:44:27.473Z,49.70
2019-01-23T08:48:31.942Z,56.97
2019-01-23T08:52:36.519Z,43.37
2019-01-23T08:57:50.031Z,51.30
2019-01-23T09:01:54.584Z,53.30
2019-01-23T09:07:44.348Z,51.60
2019-01-23T09:18:37.575Z,53.13
2019-01-23T09:22:42.117Z,55.10
2019-01-23T09:26:46.663Z,56.73
2019-01-23T09:31:23.119Z,52.50
2019-01-23T09:36:07.421Z,53.57
2019-01-23T09:40:39.675Z,46.53
2019-01-23T09:45:07.899Z,50.93
2019-01-23T09:49:50.522Z,56.53
2019-01-23T09:54:03.521Z,55.43
2019-01-23T09:58:09.978Z,52.27
2019-01-23T10:02:33.726Z,46.53
2019-01-23T10:06:38.280Z,47.87
2019-01-23T10:11:48.859Z,51.50
2019-01-23T10:16:16.242Z,54.90
2019-01-23T10:20:20.768Z,52.13
2019-01-23T10:24:25.272Z,55.63
2019-01-23T10:28:29.819Z,50.03
2019-01-23T10:42:08.130Z,48.17
2019-01-23T10:52:38.647Z,50.97
2019-01-23T10:56:45.944Z,51.27
2019-01-23T11:00:50.524Z,51.27
2019-01-23T11:07:49.603Z,48.47
2019-01-23T11:17:23.109Z,49.17
2019-01-23T11:28:24.273Z,46.83
2019-01-23T11:32:29.019Z,57.20
2019-01-23T11:38:45.305Z,47.63
2019-01-23T11:42:49.846Z,50.90
2019-01-23T12:01:14.741Z,44.53
2019-01-23T12:06:48.857Z,49.30
2019-01-23T12:10:57.960Z,41.53
2019-01-23T12:18:59.159Z,39.57
2019-01-23T12:23:03.975Z,42.40
2019-01-23T12:27:57.531Z,49.43
2019-01-23T12:32:59.490Z,41.83
2019-01-23T12:38:42.767Z,47.73
2019-01-23T12:42:47.344Z,41.10
2019-01-23T12:50:09.291Z,37.20
2019-01-23T12:57:23.623Z,41.13
2019-01-23T13:01:28.180Z,41.93
2019-01-23T13:19:17.617Z,55.77
2019-01-23T13:29:01.207Z,51.97
2019-01-23T13:40:17.965Z,41.37
2019-01-23T13:45:52.755Z,43.87
2019-01-23T13:49:57.280Z,41.97
2019-01-23T13:54:21.351Z,44.40
2019-01-23T14:03:15.390Z,47.70
2019-01-23T14:08:39.003Z,40.87
2019-01-23T14:12:43.540Z,45.27
2019-01-23T14:16:48.044Z,45.33
2019-01-23T14:20:52.591Z,48.50
2019-01-23T14:32:09.539Z,44.27
2019-01-23T14:38:40.967Z,44.73
2019-01-23T14:48:11.248Z,38.63
2019-01-23T14:52:15.791Z,42.87
2019-01-23T14:57:07.143Z,50.37
2019-01-23T15:19:49.434Z,49.50
2019-01-23T15:23:53.991Z,41.77
2019-01-23T15:27:58.534Z,46.87
2019-01-23T15:45:37.074Z,53.07
2019-01-23T15:51:04.816Z,47.70
2019-01-23T15:55:11.467Z,52.83
2019-01-23T16:04:12.052Z,43.87
2019-01-23T16:12:41.443Z,51.67
2019-01-23T16:20:20.858Z,47.53
2019-01-23T16:26:23.986Z,44.87
2019-01-23T16:30:39.542Z,49.70
2019-01-23T16:35:23.144Z,56.60
2019-01-23T16:39:27.713Z,55.53
2019-01-23T16:45:58.719Z,62.10
2019-01-23T16:52:36.875Z,58.37
2019-01-23T16:57:46.491Z,53.00
2019-01-23T17:01:51.047Z,54.47
2019-01-23T17:05:55.632Z,57.50
2019-01-23T17:10:00.231Z,59.63
2019-01-23T17:14:57.395Z,58.07
2019-01-23T17:23:39.471Z,60.63
2019-01-23T17:41:14.760Z,77.47
2019-01-23T17:48:13.047Z,93.35
2019-01-23T18:30:20.819Z,74.10
2019-01-23T18:36:17.063Z,81.40
2019-01-23T18:44:59.207Z,76.40
2019-01-23T18:56:29.402Z,80.10
2019-01-23T19:01:50.931Z,67.83
2019-01-23T19:34:15.749Z,76.37
2019-01-23T19:38:20.319Z,81.40
2019-01-23T19:52:54.671Z,72.37
2019-01-23T20:02:30.287Z,71.17
2019-01-23T20:12:40.000Z,91.02
2019-01-23T20:17:35.635Z,93.07
2019-01-23T20:21:40.171Z,89.03
2019-01-23T20:25:44.728Z,76.97
2019-01-23T20:50:39.055Z,83.73
2019-01-23T21:03:05.982Z,84.20
2019-01-23T21:11:25.683Z,91.37
2019-01-23T21:15:31.853Z,77.70
2019-01-23T21:19:36.414Z,82.97
2019-01-23T21:23:41.021Z,82.07
2019-01-23T21:27:45.923Z,73.53
2019-01-23T21:31:50.451Z,72.03
2019-01-23T21:35:54.963Z,79.00
2019-01-23T21:41:03.088Z,68.63
2019-01-23T21:45:09.279Z,71.87
2019-01-23T21:49:13.805Z,74.90
2019-01-23T21:54:11.261Z,53.20
2019-01-23T22:05:50.519Z,72.53
2019-01-23T22:13:45.530Z,70.83
2019-01-23T22:20:58.139Z,70.70
2019-01-23T22:32:45.422Z,58.63
2019-01-23T22:36:49.970Z,74.53
2019-01-23T22:40:54.551Z,73.50
2019-01-23T22:46:04.062Z,74.33
2019-01-23T22:50:11.711Z,64.53
2019-01-23T22:54:16.242Z,76.67
2019-01-23T22:58:20.743Z,78.20
2019-01-23T23:02:25.279Z,77.90
2019-01-23T23:06:29.911Z,71.77
2019-01-23T23:10:34.559Z,72.50
2019-01-23T23:14:39.076Z,82.77
2019-01-23T23:18:43.619Z,78.57
2019-01-23T23:23:20.515Z,73.43
2019-01-23T23:27:25.046Z,82.03
2019-01-23T23:33:19.023Z,72.67
2019-01-23T23:49:26.934Z,69.07
2019-01-23T23:54:17.686Z,75.77
